Anacortes, WA

4:28 PM PDT on October 22, 2014 (GMT -0700)
above Lovric's | Change Station
CLOSE
Current Station
Personal Weather Station
Location: Anacortes, WA
Elevation: 60 ft
Nearby Weather Stations

Elev 60 ft 48.51 °N, 122.64 °W | Updated 2 minutes ago

Overcast
Overcast
56.2 °F
Feels Like 56.2 °F
N
2.0
Wind Variable Wind from WNW
Gusts 5.0 mph

Today
High -- | Low -- °F
--% Chance of Precip.
Yesterday
High -- | Low -- °F
Precip. -- in
7:41 AM 6:07 PM
Waning Crescent, 1% visible
Pressure 29.62 in
Visibility 10.0 miles
Clouds Mostly Cloudy 1500 ft
Overcast 2000 ft
Dew Point 56 °F
Humidity 100%
Rainfall 0.15 in
Snow Depth Not available.
UV 0 out of 12
Pollen .40 out of 12
PM2.5 Good
Flu Activity Sporadic
METAR KNUW 222256Z 13014G21KT 10SM -RA BKN015 OVC020 14/12 A2960 RMK AO2 RAB37 SLP028 P0001 T01440122

More Conditions Fewer Conditions

Pressure 29.62 in
Visibility 10.0 miles
Clouds Mostly Cloudy 1500 ft
Overcast 2000 ft
Dew Point 56 °F
Humidity 100%
Rainfall 0.15 in
Snow Depth Not available.
UV 0 out of 12
Pollen .40 out of 12
PM2.5 Good
Flu Activity Sporadic
METAR KNUW 222256Z 13014G21KT 10SM -RA BKN015 OVC020 14/12 A2960 RMK AO2 RAB37 SLP028 P0001 T01440122

More Conditions Fewer Conditions

10-Day Weather Forecast

Almanac

Astronomy

Oct. 22, 2014 Rise Set
Actual Time 7:41 AM PDT 6:07 PM PDT
Civil Twilight 7:09 AM PDT 6:39 PM PDT
Nautical Twilight 6:32 AM PDT 7:16 PM PDT
Astronomical Twilight 5:56 AM PDT 7:52 PM PDT
Moon 6:22 AM PDT 5:41 PM PDT
Length of Visible Light 11h 30m
Length of Day
10h 26m
Tomorrow will be 3m 20s shorter.
Waning Crescent, 1% of the Moon is Illuminated
Today
Waning Crescent
Oct 23
New
Oct 30
First Quarter
Nov 6
Full
Nov 14
Last Quarter

Today's Extremes

State Highs State Lows

Community

WunderPhotos

Upload Photos

1,764,078 photos uploaded!

WunderBlogs® & News

Nearby

Air Quality

  Air Quality AQ Index Pollutant
Yesterday Good
OZONE
Yesterday Good
PM2.5
Current Good
PM2.5
Wednesday Good
OZONE
Wednesday Good
PM2.5
Thursday Good
OZONE
Thursday Good
PM2.5
Friday Good
OZONE
Friday Good
PM2.5

Snow Depth

Station Depth Elevation
Mf Nooksack 1 in 4980 ft
Wells Creek 0 in 4200 ft
Dungeness 0 in 4100 ft
Alpine Meadows 0 in 3500 ft
Beaver Pass 0 in 3620 ft

Earthquake Activity

City Distance Mag. Time & Date
No recent earthquake activity has been reported nearby.
Minimum magnitude displayed is 2.5.

Coastal Water Temperatures

Place Temperature
Port Townsend, WA 52.0 °F
Friday Harbor, WA 51.1 °F
Port Angeles, WA 57.0 °F

Nearby Weather Stations